Time;durP1;ratioP1;P1;durP2;ratioP2;P2;SDS_P1;SDS_P2;PMS_P1;PMS_P2;Temp;Humidity;BMP_temperature;BMP_pressure;BME280_temperature;BME280_humidity;BME280_pressure;Samples;Min_cycle;Max_cycle;Signal;HPM_P1;HPM_P2
2023/08/02 00:01:01;;;;;;;3.85;1.70;;;;;;;16.67;93.66;99856.16;4997434;28;20061;-61
2023/08/02 00:03:26;;;;;;;4.57;1.60;;;;;;;16.70;93.40;99852.56;5002853;28;20854;-61
2023/08/02 00:05:56;;;;;;;5.05;1.60;;;;;;;16.73;93.15;99848.03;5000084;28;20045;-61
2023/08/02 00:08:23;;;;;;;4.60;1.67;;;;;;;16.77;93.20;99843.56;5006600;28;20029;-61
2023/08/02 00:10:48;;;;;;;4.32;1.73;;;;;;;16.79;92.85;99839.09;5007586;28;20036;-61
2023/08/02 00:13:13;;;;;;;5.35;2.20;;;;;;;16.83;92.24;99838.00;5000687;28;20412;-61
2023/08/02 00:15:39;;;;;;;5.57;1.60;;;;;;;16.83;92.35;99833.66;4998482;28;20160;-61
2023/08/02 00:18:04;;;;;;;4.22;1.70;;;;;;;16.85;92.74;99836.19;4996428;28;20773;-61
2023/08/02 00:20:29;;;;;;;3.60;1.52;;;;;;;16.85;92.34;99830.97;4997660;28;20041;-61
2023/08/02 00:22:55;;;;;;;3.45;1.63;;;;;;;16.86;92.48;99828.28;4999226;28;20048;-61
2023/08/02 00:25:21;;;;;;;5.88;1.67;;;;;;;16.89;92.75;99823.84;4998552;28;20030;-61
2023/08/02 00:27:47;;;;;;;4.53;1.50;;;;;;;16.90;92.39;99822.91;5000403;28;20434;-61
2023/08/02 00:30:12;;;;;;;4.72;1.60;;;;;;;16.90;93.13;99828.13;4999710;28;20069;-61
2023/08/02 00:32:44;;;;;;;7.03;1.70;;;;;;;16.91;92.87;99829.84;5000233;28;20069;-61
2023/08/02 00:35:10;;;;;;;5.30;1.70;;;;;;;16.91;93.41;99832.44;4999968;28;20096;-61
2023/08/02 00:37:35;;;;;;;3.08;1.60;;;;;;;16.91;93.21;99829.84;5002894;28;20029;-61
2023/08/02 00:40:01;;;;;;;4.80;1.90;;;;;;;16.93;93.16;99839.28;4995511;28;20065;-61
2023/08/02 00:42:26;;;;;;;5.90;1.95;;;;;;;16.96;92.93;99836.50;4998506;28;20054;-61
2023/08/02 00:44:51;;;;;;;4.63;1.40;;;;;;;16.98;93.10;99828.63;4992292;28;20053;-61
2023/08/02 00:47:17;;;;;;;4.03;1.85;;;;;;;16.96;93.33;99814.78;5000627;28;20765;-61
2023/08/02 00:49:45;;;;;;;4.22;1.63;;;;;;;16.94;93.91;99817.47;4998876;28;20032;-61
2023/08/02 00:52:10;;;;;;;4.18;1.58;;;;;;;16.92;94.38;99803.63;4999575;28;20561;-61
2023/08/02 00:54:36;;;;;;;8.00;2.05;;;;;;;16.89;94.53;99806.41;5002760;28;20038;-61
2023/08/02 00:57:01;;;;;;;6.28;1.90;;;;;;;16.89;95.14;99800.34;5002772;28;20061;-61
2023/08/02 00:59:27;;;;;;;4.50;1.80;;;;;;;16.88;94.74;99807.34;4996801;28;20117;-61
2023/08/02 01:01:52;;;;;;;4.55;1.60;;;;;;;16.88;94.75;99806.50;5030998;28;20053;-61
2023/08/02 01:04:18;;;;;;;3.78;1.85;;;;;;;16.88;94.54;99801.28;4990729;28;20041;-61
2023/08/02 01:07:11;;;;;;;7.60;1.75;;;;;;;16.91;94.32;99795.91;4992301;28;20037;-61
2023/08/02 01:09:51;;;;;;;4.43;1.60;;;;;;;16.91;94.38;99786.31;4994521;28;20034;-61
2023/08/02 01:12:19;;;;;;;4.28;1.70;;;;;;;16.93;94.30;99789.66;4996874;28;20732;-61
2023/08/02 01:14:49;;;;;;;7.97;2.35;;;;;;;16.96;94.06;99781.69;5005294;28;20210;-60
2023/08/02 01:17:19;;;;;;;4.25;1.65;;;;;;;16.96;93.81;99773.84;4994983;28;20987;-61
2023/08/02 01:19:44;;;;;;;5.43;1.95;;;;;;;16.99;93.37;99767.63;4996439;28;20064;-61
2023/08/02 01:22:09;;;;;;;6.15;1.83;;;;;;;17.02;93.35;99754.44;4994761;28;20521;-61
2023/08/02 01:24:37;;;;;;;4.70;1.80;;;;;;;17.03;92.86;99756.97;4997563;28;20141;-61
2023/08/02 01:27:09;;;;;;;3.33;2.15;;;;;;;17.06;92.73;99763.81;4998776;28;20041;-61
2023/08/02 01:29:37;;;;;;;4.47;2.08;;;;;;;17.07;92.41;99752.41;4991805;28;20049;-61
2023/08/02 01:32:03;;;;;;;3.00;1.60;;;;;;;17.08;92.24;99759.34;4997232;28;20029;-61
2023/08/02 01:34:30;;;;;;;5.20;1.85;;;;;;;17.09;92.29;99761.03;5003285;28;20554;-61
2023/08/02 01:36:55;;;;;;;5.72;2.00;;;;;;;17.07;91.52;99761.09;5001133;28;20084;-61
2023/08/02 01:39:21;;;;;;;5.47;1.98;;;;;;;17.09;90.98;99759.28;5005174;28;20056;-61
2023/08/02 01:41:46;;;;;;;5.00;1.77;;;;;;;17.08;90.78;99749.75;5000081;28;20042;-61
2023/08/02 01:44:11;;;;;;;7.50;1.70;;;;;;;17.10;89.92;99755.72;4995974;28;20514;-61
2023/08/02 01:46:37;;;;;;;4.10;2.17;;;;;;;17.10;89.48;99754.88;4990590;28;21067;-61
2023/08/02 01:49:02;;;;;;;4.30;1.90;;;;;;;17.13;88.74;99757.31;4995481;28;20041;-61
2023/08/02 01:51:27;;;;;;;7.22;1.92;;;;;;;17.14;88.38;99765.09;4998451;28;20038;-61
2023/08/02 01:53:52;;;;;;;4.90;1.98;;;;;;;17.15;88.31;99758.97;5000322;28;20112;-61
2023/08/02 01:56:18;;;;;;;6.63;1.83;;;;;;;17.13;88.07;99767.78;5000223;28;20042;-61
2023/08/02 01:58:43;;;;;;;5.70;2.10;;;;;;;17.08;90.04;99768.03;4984556;28;20100;-61
2023/08/02 02:01:08;;;;;;;6.93;2.58;;;;;;;16.93;92.88;99766.19;4990557;28;20563;-61
2023/08/02 02:03:34;;;;;;;4.10;2.00;;;;;;;16.77;95.03;99755.66;4999573;28;20057;-62
2023/08/02 02:05:59;;;;;;;5.97;2.20;;;;;;;16.62;98.06;99748.53;4998819;28;20033;-63
2023/08/02 02:08:25;;;;;;;4.38;2.20;;;;;;;16.47;99.24;99738.88;5004063;28;20030;-64
2023/08/02 02:10:51;;;;;;;9.52;2.75;;;;;;;16.35;100.00;99744.69;5003787;28;20034;-65
2023/08/02 02:13:21;;;;;;;5.20;2.45;;;;;;;16.27;100.00;99729.41;5004866;28;20064;-65
2023/08/02 02:15:47;;;;;;;6.93;2.30;;;;;;;16.23;100.00;99720.06;5004193;28;20133;-65
2023/08/02 02:18:12;;;;;;;8.13;2.92;;;;;;;16.20;100.00;99717.59;5006208;28;20042;-65
2023/08/02 02:20:38;;;;;;;4.80;2.33;;;;;;;16.10;100.00;99711.09;5001158;28;20045;-65
2023/08/02 02:23:03;;;;;;;4.68;2.53;;;;;;;16.08;100.00;99712.97;4998852;28;20204;-65
2023/08/02 02:25:28;;;;;;;7.50;2.35;;;;;;;16.07;100.00;99703.44;5005739;28;20041;-65
2023/08/02 02:27:54;;;;;;;5.65;2.42;;;;;;;16.05;100.00;99691.41;4999878;28;20041;-65
2023/08/02 02:30:19;;;;;;;8.52;3.08;;;;;;;16.06;100.00;99687.84;4999952;28;20176;-65
2023/08/02 02:32:44;;;;;;;6.30;2.60;;;;;;;16.04;100.00;99680.13;4998905;28;20505;-65
2023/08/02 02:35:14;;;;;;;7.68;2.83;;;;;;;16.03;100.00;99674.97;5002185;28;20140;-65
2023/08/02 02:37:41;;;;;;;5.47;2.70;;;;;;;16.02;100.00;99666.31;5009854;28;20025;-65
2023/08/02 02:40:07;;;;;;;8.05;3.53;;;;;;;16.01;100.00;99659.41;5002908;28;20197;-65
2023/08/02 02:42:33;;;;;;;5.85;2.88;;;;;;;16.02;100.00;99670.69;5000137;28;20042;-65
2023/08/02 02:44:59;;;;;;;7.75;3.38;;;;;;;16.02;100.00;99657.66;5000399;28;20049;-65
2023/08/02 02:47:24;;;;;;;5.32;2.55;;;;;;;16.01;100.00;99649.00;5000045;28;20544;-65
2023/08/02 02:49:49;;;;;;;8.68;2.97;;;;;;;16.00;100.00;99633.44;5000473;28;20041;-65
2023/08/02 02:52:15;;;;;;;6.80;2.97;;;;;;;15.99;100.00;99629.97;4998232;28;20047;-65
2023/08/02 02:54:40;;;;;;;4.38;2.67;;;;;;;15.99;100.00;99637.81;4993600;28;20404;-65
2023/08/02 02:57:06;;;;;;;6.05;2.92;;;;;;;15.98;100.00;99630.03;5000061;28;20196;-65
2023/08/02 02:59:32;;;;;;;7.20;3.25;;;;;;;15.99;100.00;99626.53;4995878;28;20083;-65
2023/08/02 03:02:00;;;;;;;10.43;2.97;;;;;;;16.00;100.00;99617.81;4996534;28;20042;-65
2023/08/02 03:04:26;;;;;;;6.05;2.72;;;;;;;16.00;100.00;99604.78;4992680;28;20034;-65
2023/08/02 03:06:52;;;;;;;4.88;2.70;;;;;;;15.95;100.00;99594.56;4996420;28;20121;-65
2023/08/02 03:09:18;;;;;;;6.32;2.80;;;;;;;15.93;100.00;99588.56;4992932;28;20052;-65
2023/08/02 03:11:43;;;;;;;4.63;3.15;;;;;;;15.89;100.00;99583.56;4996806;28;20038;-64
2023/08/02 03:14:09;;;;;;;8.55;2.97;;;;;;;15.87;100.00;99570.63;4999978;28;20061;-65
2023/08/02 03:16:34;;;;;;;7.10;3.17;;;;;;;15.88;100.00;99584.50;4999734;28;20022;-65
2023/08/02 03:19:00;;;;;;;5.47;3.08;;;;;;;15.86;100.00;99596.75;5027239;28;20131;-64
2023/08/02 03:21:25;;;;;;;4.63;3.10;;;;;;;15.83;100.00;99594.28;4998186;28;20466;-64
2023/08/02 03:23:50;;;;;;;7.57;3.20;;;;;;;15.82;100.00;99566.56;4995705;28;20044;-65
2023/08/02 03:26:16;;;;;;;5.22;3.53;;;;;;;15.80;100.00;99571.00;4997938;28;20096;-64
2023/08/02 03:28:41;;;;;;;5.20;3.33;;;;;;;15.79;100.00;99571.94;4995743;28;20150;-64
2023/08/02 03:31:06;;;;;;;5.20;2.67;;;;;;;15.79;100.00;99571.94;4996986;28;20050;-64
2023/08/02 03:33:32;;;;;;;6.40;2.72;;;;;;;15.78;100.00;99584.09;4996924;28;20647;-64
2023/08/02 03:35:57;;;;;;;5.88;3.25;;;;;;;15.76;100.00;99578.13;4995303;28;20037;-64
2023/08/02 03:38:22;;;;;;;8.27;3.17;;;;;;;15.74;100.00;99579.94;4998236;28;20036;-64
2023/08/02 03:40:48;;;;;;;6.47;2.80;;;;;;;15.72;100.00;99582.66;5005403;28;20462;-64
2023/08/02 03:43:13;;;;;;;10.18;3.88;;;;;;;15.73;100.00;99579.09;4997558;28;20061;-64
2023/08/02 03:45:38;;;;;;;6.75;2.88;;;;;;;15.74;100.00;99582.56;4996864;28;20049;-64
2023/08/02 03:48:04;;;;;;;8.63;3.00;;;;;;;15.72;100.00;99585.25;4998068;28;20498;-64
2023/08/02 03:50:30;;;;;;;4.97;2.83;;;;;;;15.72;100.00;99582.66;4998419;28;20057;-64
2023/08/02 03:52:55;;;;;;;4.32;3.03;;;;;;;15.71;100.00;99573.13;4993454;28;20858;-64
2023/08/02 03:55:21;;;;;;;8.75;3.53;;;;;;;15.74;100.00;99556.50;4994547;28;20034;-64
2023/08/02 03:57:46;;;;;;;8.30;3.58;;;;;;;15.75;100.00;99530.38;4996169;28;20052;-64
2023/08/02 04:00:12;;;;;;;4.53;2.90;;;;;;;15.78;100.00;99510.31;4997303;28;20048;-64
2023/08/02 04:02:37;;;;;;;6.22;3.80;;;;;;;15.81;100.00;99517.97;4994627;28;20783;-64
2023/08/02 04:05:02;;;;;;;5.50;3.13;;;;;;;15.85;100.00;99522.94;4999061;28;20484;-64
2023/08/02 04:07:28;;;;;;;8.68;3.72;;;;;;;15.89;100.00;99515.81;4999216;28;20483;-64
2023/08/02 04:09:53;;;;;;;5.50;3.28;;;;;;;15.94;100.00;99524.28;4997004;28;20526;-64
2023/08/02 04:12:19;;;;;;;8.45;4.35;;;;;;;16.00;100.00;99529.19;4998158;28;20065;-64
2023/08/02 04:14:45;;;;;;;7.38;3.70;;;;;;;16.03;100.00;99518.56;4997761;28;20038;-63
2023/08/02 04:17:10;;;;;;;6.80;4.05;;;;;;;16.06;100.00;99523.63;4996010;28;20030;-64
2023/08/02 04:19:36;;;;;;;7.30;4.10;;;;;;;16.09;100.00;99518.25;4993624;28;20041;-63
2023/08/02 04:22:01;;;;;;;5.68;3.70;;;;;;;16.13;100.00;99517.19;4997154;28;20543;-63
2023/08/02 04:24:27;;;;;;;8.25;3.80;;;;;;;16.15;100.00;99503.16;4995618;28;20061;-63
2023/08/02 04:26:52;;;;;;;5.47;3.78;;;;;;;16.19;100.00;99514.28;4997540;28;20519;-63
2023/08/02 04:29:17;;;;;;;6.10;3.13;;;;;;;16.22;100.00;99512.38;4997977;28;20092;-63
2023/08/02 04:31:43;;;;;;;9.15;3.75;;;;;;;16.24;100.00;99494.03;4992695;28;20066;-63
2023/08/02 04:34:08;;;;;;;6.68;4.03;;;;;;;16.25;100.00;99493.97;4998161;28;20052;-63
2023/08/02 04:36:33;;;;;;;5.88;3.50;;;;;;;16.29;100.00;99497.25;4996887;28;20752;-63
2023/08/02 04:39:02;;;;;;;6.53;3.67;;;;;;;16.32;100.00;99486.66;4998346;28;20803;-63
2023/08/02 04:41:27;;;;;;;7.57;3.83;;;;;;;16.33;100.00;99468.31;4993443;28;20041;-63
2023/08/02 04:43:52;;;;;;;4.68;3.08;;;;;;;16.35;100.00;99463.03;4998096;28;20096;-64
2023/08/02 04:46:18;;;;;;;9.40;4.10;;;;;;;16.37;100.00;99447.28;4988623;28;20105;-63
2023/08/02 04:48:43;;;;;;;9.02;4.03;;;;;;;16.38;100.00;99446.38;4996306;28;20034;-64
2023/08/02 04:51:10;;;;;;;11.25;4.03;;;;;;;16.42;100.00;99437.44;4995938;28;20499;-63
2023/08/02 04:53:36;;;;;;;8.18;3.67;;;;;;;16.41;100.00;99428.81;4998605;28;20100;-63
2023/08/02 04:56:01;;;;;;;6.70;3.50;;;;;;;16.43;100.00;99426.94;5006166;28;20037;-64
2023/08/02 04:58:27;;;;;;;8.00;3.60;;;;;;;16.44;100.00;99419.97;5001366;28;20034;-63
2023/08/02 05:00:52;;;;;;;6.65;4.13;;;;;;;16.45;100.00;99414.66;4995676;28;20066;-63
2023/08/02 05:03:17;;;;;;;7.45;3.80;;;;;;;16.47;100.00;99401.56;4998229;28;20525;-64
2023/08/02 05:05:43;;;;;;;7.47;3.80;;;;;;;16.46;100.00;99390.28;4995228;28;20109;-63
2023/08/02 05:08:08;;;;;;;8.15;3.95;;;;;;;16.46;100.00;99381.59;4998769;28;20045;-64
2023/08/02 05:10:37;;;;;;;10.25;4.43;;;;;;;16.48;100.00;99367.53;4997872;28;20563;-63
2023/08/02 05:13:05;;;;;;;7.43;4.40;;;;;;;16.49;100.00;99357.97;5003018;28;20877;-62
2023/08/02 05:15:35;;;;;;;8.02;4.30;;;;;;;16.50;100.00;99357.91;5002451;28;20046;-62
2023/08/02 05:18:01;;;;;;;7.70;4.07;;;;;;;16.53;100.00;99344.69;5000495;28;20845;-62
2023/08/02 05:20:30;;;;;;;8.43;4.22;;;;;;;16.55;100.00;99340.22;4997657;28;20050;-62
2023/08/02 05:22:56;;;;;;;6.55;4.00;;;;;;;16.58;100.00;99315.72;4994114;28;20045;-62
2023/08/02 05:25:21;;;;;;;5.32;3.60;;;;;;;16.57;100.00;99314.03;4998555;28;20045;-62
2023/08/02 05:27:46;;;;;;;7.57;4.18;;;;;;;16.59;100.00;99323.44;4994420;28;20050;-62
2023/08/02 05:30:12;;;;;;;10.48;4.63;;;;;;;16.59;100.00;99328.66;4994994;28;20034;-62
2023/08/02 05:32:37;;;;;;;9.48;4.18;;;;;;;16.60;100.00;99330.34;4994037;28;20046;-62
2023/08/02 05:35:03;;;;;;;7.60;3.78;;;;;;;16.61;100.00;99326.00;5001077;28;20157;-62
2023/08/02 05:37:29;;;;;;;9.13;4.65;;;;;;;16.66;100.00;99329.16;4995478;28;20169;-62
2023/08/02 05:39:55;;;;;;;7.90;4.57;;;;;;;16.66;100.00;99327.41;5001784;28;20136;-62
2023/08/02 05:42:20;;;;;;;14.02;4.30;;;;;;;16.71;100.00;99325.38;4991020;28;20091;-62
2023/08/02 05:44:45;;;;;;;9.93;4.30;;;;;;;16.76;100.00;99306.88;4993058;28;20077;-62
2023/08/02 05:47:10;;;;;;;9.82;4.30;;;;;;;16.80;100.00;99290.16;4999105;28;20034;-63
2023/08/02 05:49:36;;;;;;;5.53;4.03;;;;;;;16.82;100.00;99280.44;4996529;28;20058;-62
2023/08/02 05:52:01;;;;;;;10.25;4.50;;;;;;;16.85;100.00;99275.91;4994645;28;20049;-62
2023/08/02 05:54:27;;;;;;;5.32;4.25;;;;;;;16.83;100.00;99282.97;4993624;28;20149;-63
2023/08/02 05:56:52;;;;;;;8.23;4.90;;;;;;;16.87;100.00;99299.28;4994814;28;20108;-63
2023/08/02 05:59:17;;;;;;;7.35;4.35;;;;;;;16.83;100.00;99285.56;4994697;28;20049;-63
2023/08/02 06:01:42;;;;;;;9.38;4.82;;;;;;;16.82;100.00;99278.69;4995093;28;20041;-63
2023/08/02 06:04:08;;;;;;;8.45;4.82;;;;;;;16.84;100.00;99281.19;4995546;28;20049;-63
2023/08/02 06:06:33;;;;;;;7.65;4.88;;;;;;;16.82;100.00;99272.63;4996405;28;20037;-64
2023/08/02 06:08:58;;;;;;;12.45;5.60;;;;;;;16.83;100.00;99269.06;4994570;28;20149;-64
2023/08/02 06:11:24;;;;;;;7.95;4.47;;;;;;;16.81;100.00;99266.56;4993967;28;20034;-65
2023/08/02 06:13:50;;;;;;;7.38;4.53;;;;;;;16.80;100.00;99272.69;4995546;28;20468;-63
2023/08/02 06:16:15;;;;;;;9.98;4.55;;;;;;;16.79;100.00;99265.81;4995066;28;20208;-65
2023/08/02 06:18:40;;;;;;;11.80;5.00;;;;;;;16.77;100.00;99259.81;4997916;28;20081;-66
2023/08/02 06:21:06;;;;;;;9.25;4.78;;;;;;;16.75;100.00;99255.59;4995171;28;20605;-66
2023/08/02 06:23:31;;;;;;;7.78;4.65;;;;;;;16.73;100.00;99255.69;4993270;28;20125;-66
2023/08/02 06:25:56;;;;;;;12.15;4.57;;;;;;;16.75;100.00;99246.00;4995880;28;21829;-66
2023/08/02 06:28:22;;;;;;;12.63;5.07;;;;;;;16.77;100.00;99241.56;4991079;28;20046;-66
2023/08/02 06:30:47;;;;;;;8.10;5.30;;;;;;;16.76;100.00;99239.03;4994582;28;20033;-65
2023/08/02 06:33:12;;;;;;;10.55;5.00;;;;;;;16.73;100.00;99245.25;5022423;28;20041;-65
2023/08/02 06:35:38;;;;;;;11.63;5.28;;;;;;;16.67;100.00;99229.13;4997602;28;20044;-66
2023/08/02 06:38:03;;;;;;;11.13;5.15;;;;;;;16.63;100.00;99212.78;4991447;28;20034;-66
2023/08/02 06:40:28;;;;;;;9.75;5.35;;;;;;;16.64;100.00;99209.25;4996693;28;20410;-66
2023/08/02 06:42:54;;;;;;;9.32;5.25;;;;;;;16.62;100.00;99203.28;4996448;28;20538;-66
2023/08/02 06:45:19;;;;;;;6.38;4.55;;;;;;;16.63;100.00;99197.13;4991485;28;20049;-66
2023/08/02 06:47:44;;;;;;;9.05;4.80;;;;;;;16.63;100.00;99196.28;4994568;28;20062;-66
2023/08/02 06:50:10;;;;;;;9.60;5.20;;;;;;;16.67;100.00;99185.59;4998952;28;20046;-66
2023/08/02 06:52:35;;;;;;;9.20;5.15;;;;;;;16.67;100.00;99172.56;4995441;28;20036;-66
2023/08/02 06:55:00;;;;;;;9.07;5.25;;;;;;;16.71;100.00;99162.78;4997108;28;20068;-66
2023/08/02 06:57:30;;;;;;;11.02;5.93;;;;;;;16.75;100.00;99156.44;4997456;28;20044;-66
2023/08/02 06:59:56;;;;;;;9.40;5.95;;;;;;;16.83;100.00;99157.69;4995016;28;20055;-66
2023/08/02 07:02:21;;;;;;;7.53;6.28;;;;;;;16.90;100.00;99147.75;4996110;28;20386;-67
2023/08/02 07:04:46;;;;;;;9.38;6.38;;;;;;;17.01;100.00;99142.72;4996938;28;20155;-67
2023/08/02 07:07:12;;;;;;;12.32;7.30;;;;;;;17.15;100.00;99136.66;4995701;28;20755;-67
2023/08/02 07:09:37;;;;;;;11.80;7.28;;;;;;;17.27;100.00;99141.16;5001906;28;20038;-67
2023/08/02 07:12:03;;;;;;;9.45;7.55;;;;;;;17.36;100.00;99137.97;5000037;28;20038;-66
2023/08/02 07:14:28;;;;;;;10.32;6.50;;;;;;;17.34;100.00;99122.38;4997746;28;20042;-67
2023/08/02 07:16:53;;;;;;;10.18;6.63;;;;;;;17.49;100.00;99119.72;4995262;28;21581;-67
2023/08/02 07:19:18;;;;;;;10.63;7.13;;;;;;;17.57;100.00;99105.28;4998250;28;20029;-67
2023/08/02 07:21:44;;;;;;;9.32;6.57;;;;;;;17.70;100.00;99102.72;4999344;28;20049;-67
2023/08/02 07:24:09;;;;;;;13.40;6.68;;;;;;;17.91;100.00;99104.84;5001234;28;20045;-66
2023/08/02 07:26:34;;;;;;;7.65;5.50;;;;;;;17.92;100.00;99087.38;4995013;28;20042;-66
2023/08/02 07:29:00;;;;;;;10.30;6.32;;;;;;;18.09;100.00;99078.41;4997349;28;20038;-66
2023/08/02 07:31:25;;;;;;;11.50;6.18;;;;;;;18.16;100.00;99067.47;5000186;28;20107;-66
2023/08/02 07:33:50;;;;;;;6.68;5.50;;;;;;;18.21;100.00;99073.22;5000216;28;20126;-66
2023/08/02 07:36:18;;;;;;;9.13;5.57;;;;;;;18.24;100.00;99059.94;5029013;28;20137;-65
2023/08/02 07:38:44;;;;;;;8.15;5.35;;;;;;;18.14;100.00;99050.19;4995128;28;20478;-65
2023/08/02 07:41:09;;;;;;;7.88;5.50;;;;;;;18.12;100.00;99047.69;4995678;28;20034;-65
2023/08/02 07:43:34;;;;;;;7.13;5.10;;;;;;;18.07;100.00;99051.53;4996340;28;20495;-65
2023/08/02 07:46:00;;;;;;;8.90;5.03;;;;;;;18.18;100.00;99035.97;5000446;28;20498;-67
2023/08/02 07:48:25;;;;;;;8.15;5.03;;;;;;;18.26;100.00;99046.75;5002013;28;20037;-66
2023/08/02 07:50:50;;;;;;;8.00;4.63;;;;;;;18.28;100.00;99031.81;4994030;28;20122;-66
2023/08/02 07:53:16;;;;;;;8.98;4.93;;;;;;;18.41;100.00;99016.94;5000190;28;20663;-65
2023/08/02 07:55:42;;;;;;;7.50;4.72;;;;;;;18.50;100.00;99009.31;4996807;28;20526;-66
2023/08/02 07:58:07;;;;;;;6.20;4.10;;;;;;;18.72;100.00;99019.16;4994722;28;20105;-66
2023/08/02 08:00:33;;;;;;;7.78;4.75;;;;;;;18.74;99.99;98995.47;4994878;28;20034;-66
2023/08/02 08:02:58;;;;;;;6.20;3.53;;;;;;;18.79;99.75;98990.78;4993350;28;20124;-65
2023/08/02 08:05:25;;;;;;;3.63;2.70;;;;;;;18.92;99.29;98983.75;4994972;28;20724;-66
2023/08/02 08:07:50;;;;;;;4.97;3.13;;;;;;;18.93;98.34;98991.50;4996636;28;20026;-68
2023/08/02 08:10:16;;;;;;;4.90;3.30;;;;;;;18.97;99.21;98992.09;4995933;28;20828;-65
2023/08/02 08:12:41;;;;;;;6.10;2.75;;;;;;;18.92;97.85;98981.97;4995778;28;20730;-66
2023/08/02 08:15:07;;;;;;;4.28;2.72;;;;;;;18.97;97.05;98974.63;5001997;28;20042;-65
2023/08/02 08:17:32;;;;;;;4.85;2.70;;;;;;;19.01;97.59;98962.16;4993940;28;20046;-66
2023/08/02 08:19:58;;;;;;;4.57;2.83;;;;;;;18.86;96.52;98971.94;4997159;28;20044;-65
2023/08/02 08:22:28;;;;;;;2.88;2.28;;;;;;;18.88;97.87;98975.25;4994702;28;20038;-66
2023/08/02 08:24:57;;;;;;;4.13;2.30;;;;;;;19.17;97.61;98981.06;4998053;28;20104;-65
2023/08/02 08:27:22;;;;;;;2.80;2.10;;;;;;;19.21;96.11;98977.28;4994954;28;20037;-65
2023/08/02 08:29:48;;;;;;;3.33;1.60;;;;;;;19.27;94.89;98966.34;4994990;28;20041;-65
2023/08/02 08:32:13;;;;;;;4.95;2.10;;;;;;;19.38;93.32;98973.44;4995644;28;20049;-65
2023/08/02 08:34:38;;;;;;;2.83;1.73;;;;;;;19.27;93.79;98961.13;4997435;28;20032;-65
2023/08/02 08:37:04;;;;;;;3.17;1.75;;;;;;;19.10;95.53;98969.34;4994280;28;20044;-65
2023/08/02 08:39:29;;;;;;;2.53;1.13;;;;;;;18.83;95.08;98973.88;4997778;28;20029;-65
2023/08/02 08:41:56;;;;;;;4.93;1.75;;;;;;;18.74;96.58;98967.53;4996193;28;20046;-65
2023/08/02 08:44:22;;;;;;;3.50;1.40;;;;;;;18.69;96.85;98971.41;4990934;28;20100;-64
2023/08/02 08:46:48;;;;;;;1.70;1.35;;;;;;;18.64;97.48;98978.75;4991425;28;20542;-65
2023/08/02 08:49:14;;;;;;;1.52;1.08;;;;;;;18.52;98.74;98977.81;4997557;28;20748;-65
2023/08/02 08:51:42;;;;;;;1.25;0.80;;;;;;;18.49;98.47;98962.34;4995972;28;20084;-65
2023/08/02 08:54:17;;;;;;;2.75;0.90;;;;;;;18.49;98.45;98952.69;4996968;28;20041;-64
2023/08/02 08:56:43;;;;;;;1.73;0.90;;;;;;;18.47;98.40;98964.19;4994627;28;20095;-65
2023/08/02 08:59:08;;;;;;;1.42;1.00;;;;;;;18.42;98.76;98961.91;4998941;28;20055;-64
2023/08/02 09:01:36;;;;;;;1.83;1.00;;;;;;;18.41;99.90;98970.69;4991893;28;20045;-65
2023/08/02 09:04:03;;;;;;;1.98;1.00;;;;;;;18.32;100.00;98971.31;4998536;28;20473;-64
2023/08/02 09:06:29;;;;;;;2.30;0.98;;;;;;;18.19;100.00;98965.28;4995833;28;20171;-65
2023/08/02 09:08:54;;;;;;;1.58;0.98;;;;;;;18.10;100.00;98949.38;4995813;28;20140;-66
2023/08/02 09:11:20;;;;;;;3.65;1.10;;;;;;;18.05;100.00;98946.22;4997227;28;20086;-67
2023/08/02 09:13:48;;;;;;;4.90;1.33;;;;;;;17.94;100.00;98926.03;5006337;28;20079;-67
2023/08/02 09:16:15;;;;;;;3.63;1.00;;;;;;;17.88;100.00;98914.22;5002681;28;20048;-68
2023/08/02 09:18:47;;;;;;;1.75;1.25;;;;;;;17.83;100.00;98916.28;4996411;28;20096;-67
2023/08/02 09:21:21;;;;;;;2.50;1.23;;;;;;;17.86;100.00;98916.09;4993424;28;20046;-67
2023/08/02 09:23:57;;;;;;;2.65;1.17;;;;;;;17.89;100.00;98923.72;4994142;28;20041;-67
2023/08/02 09:26:22;;;;;;;3.38;1.20;;;;;;;18.06;100.00;98914.75;4996752;28;20115;-67
2023/08/02 09:29:03;;;;;;;2.25;1.08;;;;;;;18.16;100.00;98905.34;4993524;28;20030;-66
2023/08/02 09:31:30;;;;;;;2.47;1.60;;;;;;;18.21;100.00;98918.94;4993352;28;20419;-67
2023/08/02 09:33:56;;;;;;;2.47;0.98;;;;;;;18.36;100.00;98911.78;4996630;28;20037;-67
2023/08/02 09:36:29;;;;;;;3.20;1.13;;;;;;;18.49;100.00;98892.50;4978606;28;21149;-66
2023/08/02 09:38:55;;;;;;;1.52;0.80;;;;;;;18.49;100.00;98891.69;4995476;28;20050;-66
2023/08/02 09:41:22;;;;;;;2.55;1.20;;;;;;;18.58;100.00;98883.19;4998254;28;20061;-67
2023/08/02 09:43:47;;;;;;;3.33;1.23;;;;;;;18.89;100.00;98881.84;5000882;28;20113;-67
2023/08/02 09:46:24;;;;;;;2.13;1.23;;;;;;;19.01;100.00;98881.81;4996649;28;20144;-66
2023/08/02 09:48:49;;;;;;;2.95;1.13;;;;;;;19.14;100.00;98886.16;4992637;28;20046;-67
2023/08/02 09:51:14;;;;;;;1.92;1.00;;;;;;;19.08;100.00;98882.22;4994663;28;20047;-66
2023/08/02 09:53:40;;;;;;;1.73;1.10;;;;;;;19.30;100.00;98881.47;4993251;28;20033;-66
2023/08/02 09:56:06;;;;;;;3.47;1.08;;;;;;;19.52;100.00;98878.94;5002310;28;21851;-66
2023/08/02 09:58:36;;;;;;;1.85;1.10;;;;;;;19.78;100.00;98872.56;4999167;28;20034;-65
2023/08/02 10:01:03;;;;;;;2.28;1.10;;;;;;;19.91;100.00;98870.72;4994778;28;20037;-65
2023/08/02 10:03:29;;;;;;;1.65;0.80;;;;;;;20.02;99.99;98873.34;4994518;28;20717;-64
2023/08/02 10:05:58;;;;;;;2.97;1.00;;;;;;;20.30;99.91;98861.56;4995046;28;20046;-64
2023/08/02 10:08:26;;;;;;;1.20;0.80;;;;;;;20.47;97.67;98853.19;4996332;28;20033;-64
2023/08/02 10:10:52;;;;;;;2.00;1.00;;;;;;;20.66;97.24;98858.63;4996217;28;20033;-64
2023/08/02 10:13:23;;;;;;;1.17;0.77;;;;;;;20.81;97.06;98847.91;4995253;28;20038;-65
2023/08/02 10:15:49;;;;;;;1.40;0.90;;;;;;;21.00;95.70;98848.06;4994196;28;20042;-64
2023/08/02 10:18:16;;;;;;;2.20;0.70;;;;;;;21.03;93.63;98847.81;5002654;28;20702;-63
2023/08/02 10:20:42;;;;;;;2.83;0.70;;;;;;;21.06;93.68;98848.41;4999147;28;20063;-64
2023/08/02 10:23:08;;;;;;;1.23;0.80;;;;;;;20.92;93.79;98838.19;4995832;28;20804;-64
2023/08/02 10:25:35;;;;;;;1.55;0.70;;;;;;;20.98;94.78;98827.19;4997680;28;20080;-64
2023/08/02 10:28:01;;;;;;;1.70;0.88;;;;;;;21.04;96.23;98821.44;4999367;28;20038;-64
2023/08/02 10:30:28;;;;;;;1.10;0.70;;;;;;;21.03;95.27;98811.03;4996118;28;20049;-64
2023/08/02 10:33:20;;;;;;;0.80;0.63;;;;;;;20.78;95.39;98806.13;5000142;28;20041;-64
2023/08/02 10:36:06;;;;;;;1.65;0.70;;;;;;;20.67;95.37;98810.41;5000940;28;20044;-63
2023/08/02 10:38:44;;;;;;;1.05;0.70;;;;;;;20.70;96.04;98812.84;4991173;28;20462;-63
2023/08/02 10:41:25;;;;;;;1.75;1.00;;;;;;;20.97;96.68;98799.25;4998704;28;20061;-63
2023/08/02 10:43:53;;;;;;;0.82;0.68;;;;;;;21.12;93.56;98797.16;5001342;28;20030;-62
2023/08/02 10:46:24;;;;;;;1.20;0.70;;;;;;;21.49;93.97;98792.31;4998197;28;20042;-62
2023/08/02 10:48:50;;;;;;;1.25;0.45;;;;;;;21.92;90.71;98776.34;5000710;28;20042;-62
2023/08/02 10:51:29;;;;;;;2.05;0.60;;;;;;;22.09;87.65;98773.09;4999797;28;20838;-62
2023/08/02 10:54:22;;;;;;;0.60;0.60;;;;;;;22.51;88.59;98761.47;5002510;28;20077;-63
2023/08/02 10:56:53;;;;;;;2.28;0.73;;;;;;;22.53;86.79;98759.50;4998496;28;20045;-63
2023/08/02 10:59:24;;;;;;;1.45;0.75;;;;;;;22.67;86.65;98755.66;5005784;28;20025;-63
2023/08/02 11:01:57;;;;;;;2.47;0.75;;;;;;;22.59;86.01;98756.34;5010403;28;20036;-62
2023/08/02 11:04:23;;;;;;;2.22;0.60;;;;;;;22.64;86.19;98748.88;4993065;28;20045;-63
2023/08/02 11:06:48;;;;;;;3.05;0.70;;;;;;;22.69;85.87;98748.44;4997060;28;20034;-62
2023/08/02 11:09:14;;;;;;;0.73;0.50;;;;;;;22.56;86.08;98740.81;4997552;28;20754;-63
2023/08/02 11:11:39;;;;;;;1.73;0.90;;;;;;;22.79;86.03;98730.84;4998354;28;20065;-63
2023/08/02 11:14:05;;;;;;;0.70;0.55;;;;;;;23.06;84.32;98730.97;4999919;28;20113;-62
2023/08/02 11:16:30;;;;;;;1.15;0.52;;;;;;;23.41;83.08;98730.38;4995473;28;20239;-62
2023/08/02 11:18:57;;;;;;;0.32;0.20;;;;;;;23.65;81.89;98725.44;4999337;28;20198;-62
2023/08/02 11:21:22;;;;;;;0.30;0.20;;;;;;;23.91;79.11;98718.53;4999866;28;20068;-62
2023/08/02 11:23:49;;;;;;;0.30;0.30;;;;;;;23.50;78.19;98726.06;5000547;28;20038;-62